createdAt,value
2016-04-21T00:00:08.849Z,0
2016-04-21T00:01:08.883Z,0
2016-04-21T00:02:08.589Z,0
2016-04-21T00:03:08.904Z,0
2016-04-21T00:04:08.906Z,0
2016-04-21T00:05:08.925Z,0
2016-04-21T00:06:08.911Z,0
2016-04-21T00:07:08.946Z,0
2016-04-21T00:08:08.824Z,0
2016-04-21T00:09:08.967Z,0
2016-04-21T00:10:08.986Z,0
2016-04-21T00:11:08.988Z,0
2016-04-21T00:12:09.007Z,0
2016-04-21T00:13:09.041Z,0
2016-04-21T00:14:09.043Z,0
2016-04-21T00:15:09.046Z,0
2016-04-21T00:16:09.063Z,0
2016-04-21T00:17:09.098Z,0
2016-04-21T00:18:09.116Z,0
2016-04-21T00:19:09.135Z,0
2016-04-21T00:20:08.966Z,0
2016-04-21T00:21:09.124Z,0
2016-04-21T00:22:09.143Z,0
2016-04-21T00:23:08.879Z,0
2016-04-21T00:24:09.195Z,0
2016-04-21T00:25:09.212Z,0
2016-04-21T00:26:09.200Z,0
2016-04-21T00:27:09.234Z,0
2016-04-21T00:28:09.237Z,0
2016-04-21T00:29:09.271Z,0
2016-04-21T00:30:09.258Z,0
2016-04-21T00:31:09.276Z,0
2016-04-21T00:32:09.294Z,0
2016-04-21T00:33:09.313Z,0
2016-04-21T00:34:09.316Z,0
2016-04-21T00:35:09.333Z,0
2016-04-21T00:36:09.337Z,0
2016-04-21T00:37:09.355Z,0
2016-04-21T00:38:09.138Z,0
2016-04-21T00:39:09.392Z,0
2016-04-21T00:40:09.410Z,0
2016-04-21T00:41:09.396Z,0
2016-04-21T00:42:09.399Z,0
2016-04-21T00:43:09.465Z,0
2016-04-21T00:44:09.452Z,0
2016-04-21T00:45:09.471Z,0
2016-04-21T00:46:08.723Z,0
2016-04-21T00:47:09.538Z,0
2016-04-21T00:48:09.493Z,0
2016-04-21T00:49:09.527Z,0
2016-04-21T00:50:09.546Z,0
2016-04-21T00:51:09.532Z,0
2016-04-21T00:52:09.552Z,0
2016-04-21T00:53:09.585Z,0
2016-04-21T00:54:09.588Z,0
2016-04-21T00:55:09.607Z,0
2016-04-21T00:56:09.625Z,0
2016-04-21T00:57:09.628Z,0
2016-04-21T00:58:09.630Z,0
2016-04-21T00:59:09.633Z,0
2016-04-21T01:00:09.682Z,0
2016-04-21T01:01:09.685Z,0
2016-04-21T01:02:09.703Z,0
2016-04-21T01:03:09.706Z,0
2016-04-21T01:04:09.740Z,0
2016-04-21T01:05:09.788Z,0
2016-04-21T01:06:09.852Z,0
2016-04-21T01:07:09.915Z,0
2016-04-21T01:08:10.010Z,0
2016-04-21T01:09:10.032Z,0
2016-04-21T01:10:10.037Z,0
2016-04-21T01:11:10.087Z,0
2016-04-21T01:12:10.106Z,0
2016-04-21T01:13:10.140Z,0
2016-04-21T01:14:10.187Z,0
2016-04-21T01:15:10.211Z,0
2016-04-21T01:16:10.204Z,0
2016-04-21T01:17:10.213Z,0
2016-04-21T01:18:10.252Z,0
2016-04-21T01:19:10.276Z,0
2016-04-21T01:20:10.265Z,0
2016-04-21T01:21:10.285Z,0
2016-04-21T01:22:10.169Z,0
2016-04-21T01:23:10.377Z,0
2016-04-21T01:24:10.350Z,0
2016-04-21T01:25:10.339Z,0
2016-04-21T01:26:10.373Z,0
2016-04-21T01:27:10.377Z,0
2016-04-21T01:28:10.411Z,0
2016-04-21T01:29:10.414Z,0
2016-04-21T01:30:10.433Z,0
2016-04-21T01:31:10.436Z,0
2016-04-21T01:32:10.439Z,0
2016-04-21T01:33:10.457Z,0
2016-04-21T01:34:10.476Z,0
2016-04-21T01:35:10.479Z,0
2016-04-21T01:36:10.498Z,0
2016-04-21T01:37:10.515Z,0
2016-04-21T01:38:10.379Z,0
2016-04-21T01:39:10.553Z,0
2016-04-21T01:40:10.556Z,0
2016-04-21T01:41:10.573Z,0
2016-04-21T01:42:10.576Z,0
2016-04-21T01:43:10.594Z,0
2016-04-21T01:44:10.644Z,0
2016-04-21T01:45:10.631Z,0
2016-04-21T01:46:10.618Z,0
2016-04-21T01:47:10.637Z,0
2016-04-21T01:48:10.498Z,0
2016-04-21T01:49:10.673Z,0
2016-04-21T01:50:10.691Z,0
2016-04-21T01:51:10.725Z,0
2016-04-21T01:52:10.697Z,0
2016-04-21T01:53:10.731Z,0
2016-04-21T01:54:10.734Z,0
2016-04-21T01:55:10.736Z,0
2016-04-21T01:56:10.755Z,0
2016-04-21T01:57:10.788Z,0
2016-04-21T01:58:10.791Z,0
2016-04-21T01:59:10.809Z,0
2016-04-21T02:00:10.812Z,0
2016-04-21T02:01:10.830Z,0
2016-04-21T02:02:10.833Z,0
2016-04-21T02:03:10.899Z,0
2016-04-21T02:04:10.870Z,0
2016-04-21T02:05:10.873Z,0
2016-04-21T02:06:10.906Z,0
2016-04-21T02:07:10.910Z,0
2016-04-21T02:08:10.912Z,0
2016-04-21T02:09:10.915Z,0
2016-04-21T02:10:10.932Z,0
2016-04-21T02:11:10.951Z,0
2016-04-21T02:12:11.000Z,0
2016-04-21T02:13:11.004Z,0
2016-04-21T02:14:11.007Z,0
2016-04-21T02:15:10.993Z,0
2016-04-21T02:16:11.011Z,0
2016-04-21T02:17:11.045Z,0
2016-04-21T02:18:11.047Z,0
2016-04-21T02:19:11.066Z,0
2016-04-21T02:20:11.070Z,0
2016-04-21T02:21:11.103Z,0
2016-04-21T02:22:11.089Z,0
2016-04-21T02:23:11.124Z,0
2016-04-21T02:24:11.128Z,0
2016-04-21T02:25:11.161Z,0
2016-04-21T02:26:11.148Z,0
2016-04-21T02:27:11.197Z,0
2016-04-21T02:28:11.185Z,0
2016-04-21T02:29:11.172Z,0
2016-04-21T02:30:11.190Z,0
2016-04-21T02:31:11.208Z,0
2016-04-21T02:32:11.226Z,0
2016-04-21T02:33:11.291Z,0
2016-04-21T02:34:11.294Z,0
2016-04-21T02:35:11.265Z,0
2016-04-21T02:36:11.285Z,0
2016-04-21T02:37:11.302Z,0
2016-04-21T02:38:11.180Z,0
2016-04-21T02:39:11.324Z,0
2016-04-21T02:40:11.326Z,0
2016-04-21T02:41:11.345Z,0
2016-04-21T02:42:11.362Z,0
2016-04-21T02:43:11.365Z,0
2016-04-21T02:44:11.384Z,0
2016-04-21T02:45:11.386Z,0
2016-04-21T02:46:11.405Z,0
2016-04-21T02:47:11.423Z,0
2016-04-21T02:48:11.442Z,0
2016-04-21T02:49:11.459Z,0
2016-04-21T02:50:11.462Z,0
2016-04-21T02:51:11.465Z,0
2016-04-21T02:52:11.467Z,0
2016-04-21T02:53:11.517Z,0
2016-04-21T02:54:11.567Z,0
2016-04-21T02:55:11.522Z,0
2016-04-21T02:56:11.541Z,0
2016-04-21T02:57:11.402Z,0
2016-04-21T02:58:11.547Z,0
2016-04-21T02:59:11.564Z,0
2016-04-21T03:00:11.567Z,0
2016-04-21T03:01:11.586Z,0
2016-04-21T03:02:11.588Z,0
2016-04-21T03:03:11.622Z,0
2016-04-21T03:04:11.625Z,0
2016-04-21T03:05:11.643Z,0
2016-04-21T03:06:11.646Z,0
2016-04-21T03:07:11.664Z,0
2016-04-21T03:08:11.698Z,0
2016-04-21T03:09:11.686Z,0
2016-04-21T03:10:11.751Z,0
2016-04-21T03:11:11.722Z,0
2016-04-21T03:12:11.724Z,0
2016-04-21T03:13:11.759Z,0
2016-04-21T03:14:11.762Z,0
2016-04-21T03:15:11.795Z,0
2016-04-21T03:16:11.782Z,0
2016-04-21T03:17:11.644Z,0
2016-04-21T03:18:11.803Z,0
2016-04-21T03:19:11.822Z,0
2016-04-21T03:20:11.839Z,0
2016-04-21T03:21:11.843Z,0
2016-04-21T03:22:11.854Z,0
2016-04-21T03:23:11.888Z,0
2016-04-21T03:24:11.890Z,0
2016-04-21T03:25:11.893Z,0
2016-04-21T03:26:11.896Z,0
2016-04-21T03:27:11.914Z,0
2016-04-21T03:28:11.918Z,0
2016-04-21T03:29:11.951Z,0
2016-04-21T03:30:11.953Z,0
2016-04-21T03:31:11.956Z,0
2016-04-21T03:32:11.975Z,0
2016-04-21T03:33:11.993Z,0
2016-04-21T03:34:11.995Z,0
2016-04-21T03:35:12.014Z,0
2016-04-21T03:36:12.017Z,0
2016-04-21T03:37:12.036Z,0
2016-04-21T03:38:12.053Z,0
2016-04-21T03:39:12.056Z,0
2016-04-21T03:40:12.074Z,0
2016-04-21T03:41:12.092Z,0
2016-04-21T03:42:12.095Z,0
2016-04-21T03:43:12.114Z,0
2016-04-21T03:44:12.100Z,0
2016-04-21T03:45:12.135Z,0
2016-04-21T03:46:12.168Z,0
2016-04-21T03:47:12.203Z,0
2016-04-21T03:48:12.174Z,0
2016-04-21T03:49:12.193Z,4
2016-04-21T03:50:12.195Z,0
2016-04-21T03:51:12.198Z,0
2016-04-21T03:52:12.246Z,4
2016-04-21T03:53:12.250Z,4
2016-04-21T03:54:12.237Z,0
2016-04-21T03:55:12.271Z,4
2016-04-21T03:56:12.274Z,0
2016-04-21T03:57:12.276Z,4
2016-04-21T03:58:12.295Z,4
2016-04-21T03:59:12.328Z,8
2016-04-21T04:00:12.300Z,8
2016-04-21T04:01:12.365Z,8
2016-04-21T04:02:12.337Z,8
2016-04-21T04:03:12.355Z,8
2016-04-21T04:04:12.358Z,8
2016-04-21T04:05:12.376Z,12
2016-04-21T04:06:12.394Z,12
2016-04-21T04:07:12.412Z,12
2016-04-21T04:08:12.430Z,16
2016-04-21T04:09:12.418Z,20
2016-04-21T04:10:12.436Z,16
2016-04-21T04:11:12.455Z,20
2016-04-21T04:12:12.457Z,24
2016-04-21T04:13:12.460Z,28
2016-04-21T04:14:12.493Z,28
2016-04-21T04:15:12.496Z,32
2016-04-21T04:16:12.515Z,32
2016-04-21T04:17:12.533Z,36
2016-04-21T04:18:12.552Z,40
2016-04-21T04:19:12.569Z,44
2016-04-21T04:20:12.572Z,44
2016-04-21T04:21:12.575Z,52
2016-04-21T04:22:12.610Z,56
2016-04-21T04:23:12.627Z,60
2016-04-21T04:24:12.599Z,64
2016-04-21T04:25:12.632Z,68
2016-04-21T04:26:12.635Z,76
2016-04-21T04:27:12.654Z,76
2016-04-21T04:28:12.656Z,80
2016-04-21T04:29:12.691Z,88
2016-04-21T04:30:12.678Z,92
2016-04-21T04:31:12.696Z,100
2016-04-21T04:32:12.729Z,104
2016-04-21T04:33:12.732Z,108
2016-04-21T04:34:12.734Z,112
2016-04-21T04:35:12.738Z,116
2016-04-21T04:36:12.787Z,124
2016-04-21T04:37:12.759Z,128
2016-04-21T04:38:12.778Z,132
2016-04-21T04:39:12.795Z,140
2016-04-21T04:40:12.658Z,144
2016-04-21T04:41:12.816Z,148
2016-04-21T04:42:12.819Z,160
2016-04-21T04:43:12.853Z,164
2016-04-21T04:44:12.856Z,168
2016-04-21T04:45:12.858Z,176
2016-04-21T04:46:12.908Z,180
2016-04-21T04:47:12.894Z,184
2016-04-21T04:48:12.898Z,192
2016-04-21T04:49:12.932Z,196
2016-04-21T04:50:12.950Z,200
2016-04-21T04:51:12.952Z,208
2016-04-21T04:52:12.955Z,212
2016-04-21T04:53:12.974Z,216
2016-04-21T04:54:12.993Z,224
2016-04-21T04:55:13.011Z,228
2016-04-21T04:56:12.998Z,236
2016-04-21T04:57:13.016Z,240
2016-04-21T04:58:12.862Z,244
2016-04-21T04:59:13.037Z,252
2016-04-21T05:00:13.039Z,256
2016-04-21T05:01:13.043Z,260
2016-04-21T05:02:13.060Z,272
2016-04-21T05:03:13.063Z,276
2016-04-21T05:04:13.097Z,280
2016-04-21T05:05:13.131Z,284
2016-04-21T05:06:13.117Z,292
2016-04-21T05:07:13.136Z,296
2016-04-21T05:08:13.156Z,300
2016-04-21T05:09:13.142Z,308
2016-04-21T05:10:13.192Z,312
2016-04-21T05:11:13.194Z,316
2016-04-21T05:12:13.197Z,324
2016-04-21T05:13:13.199Z,328
2016-04-21T05:14:13.217Z,336
2016-04-21T05:15:13.236Z,340
2016-04-21T05:16:13.239Z,348
2016-04-21T05:17:13.257Z,356
2016-04-21T05:18:13.260Z,360
2016-04-21T05:19:13.294Z,368
2016-04-21T05:20:13.281Z,372
2016-04-21T05:21:13.299Z,376
2016-04-21T05:22:13.302Z,384
2016-04-21T05:23:13.320Z,392
2016-04-21T05:24:13.338Z,396
2016-04-21T05:25:13.341Z,404
2016-04-21T05:26:13.374Z,420
2016-04-21T05:27:13.377Z,432
2016-04-21T05:28:13.396Z,444
2016-04-21T05:29:13.399Z,460
2016-04-21T05:30:13.418Z,488
2016-04-21T05:31:13.420Z,588
2016-04-21T05:32:13.438Z,556
2016-04-21T05:33:13.462Z,596
2016-04-21T05:34:13.465Z,692
2016-04-21T05:35:13.498Z,760
2016-04-21T05:36:13.830Z,904
2016-04-21T05:37:16.884Z,4032
2016-04-21T05:38:13.509Z,9112
2016-04-21T05:39:13.262Z,23296
2016-04-21T05:40:13.749Z,32800
2016-04-21T05:41:13.534Z,18784
2016-04-21T05:42:13.551Z,1784
2016-04-21T05:43:13.569Z,1836
2016-04-21T05:44:13.588Z,11348
2016-04-21T05:45:13.590Z,14848
2016-04-21T05:46:13.608Z,5376
2016-04-21T05:47:13.659Z,3192
2016-04-21T05:48:13.661Z,10896
2016-04-21T05:49:13.648Z,10580
2016-04-21T05:50:13.683Z,4008
2016-04-21T05:51:13.669Z,10776
2016-04-21T05:52:13.703Z,14752
2016-04-21T05:53:13.736Z,3704
2016-04-21T05:54:13.740Z,1324
2016-04-21T05:55:13.742Z,1204
2016-04-21T05:56:13.760Z,1984
2016-04-21T05:57:13.780Z,3620
2016-04-21T05:58:13.782Z,1420
2016-04-21T05:59:13.815Z,1172
2016-04-21T06:00:13.803Z,1188
2016-04-21T06:01:13.837Z,1208
2016-04-21T06:02:13.871Z,2244
2016-04-21T06:03:13.858Z,2560
2016-04-21T06:04:13.891Z,2500
2016-04-21T06:05:13.910Z,1548
2016-04-21T06:06:13.913Z,1868
2016-04-21T06:07:13.915Z,2172
2016-04-21T06:08:13.934Z,1396
2016-04-21T06:09:13.951Z,1428
2016-04-21T06:10:13.970Z,1652
2016-04-21T06:11:13.973Z,2212
2016-04-21T06:12:14.007Z,9244
2016-04-21T06:13:14.009Z,13920
2016-04-21T06:14:14.028Z,4168
2016-04-21T06:15:14.046Z,1572
2016-04-21T06:16:14.065Z,1300
2016-04-21T06:17:14.083Z,1300
2016-04-21T06:18:14.086Z,1308
2016-04-21T06:19:14.104Z,1324
2016-04-21T06:20:14.122Z,1756
2016-04-21T06:21:14.125Z,2152
2016-04-21T06:22:14.158Z,5452
2016-04-21T06:23:14.177Z,4712
2016-04-21T06:24:14.180Z,2356
2016-04-21T06:25:14.182Z,3912
2016-04-21T06:26:14.200Z,3804
2016-04-21T06:27:14.235Z,6744
2016-04-21T06:28:14.238Z,5204
2016-04-21T06:29:14.255Z,2300
2016-04-21T06:30:14.274Z,1528
2016-04-21T06:31:14.293Z,1508
2016-04-21T06:32:14.296Z,1524
2016-04-21T06:33:14.314Z,1532
2016-04-21T06:34:14.332Z,1460
2016-04-21T06:35:14.335Z,1644
2016-04-21T06:36:14.384Z,1600
2016-04-21T06:37:14.215Z,1640
2016-04-21T06:38:14.437Z,1740
2016-04-21T06:39:14.424Z,1816
2016-04-21T06:40:14.426Z,1864
2016-04-21T06:41:14.445Z,1968
2016-04-21T06:42:14.494Z,2092
2016-04-21T06:43:14.481Z,2172
2016-04-21T06:44:14.514Z,2264
2016-04-21T06:45:28.629Z,2244
2016-04-21T06:46:14.536Z,2236
2016-04-21T06:47:14.554Z,2224
2016-04-21T06:48:14.573Z,2224
2016-04-21T06:49:14.592Z,2204
2016-04-21T06:50:14.594Z,2232
2016-04-21T06:51:14.612Z,2328
2016-04-21T06:52:14.631Z,2432
2016-04-21T06:53:14.664Z,2560
2016-04-21T06:54:14.667Z,4872
2016-04-21T06:55:14.717Z,22848
2016-04-21T06:56:14.719Z,43360
2016-04-21T06:57:14.722Z,35712
2016-04-21T06:58:14.756Z,39200
2016-04-21T06:59:14.758Z,42528
2016-04-21T07:00:14.808Z,55712
2016-04-21T07:01:14.811Z,59872
2016-04-21T07:02:14.844Z,62976
2016-04-21T07:03:14.847Z,54464
2016-04-21T07:04:14.866Z,22464
2016-04-21T07:05:14.884Z,5824
2016-04-21T07:06:14.918Z,2660
2016-04-21T07:07:14.952Z,2660
2016-04-21T07:08:14.954Z,2660
2016-04-21T07:09:14.973Z,3328
2016-04-21T07:10:15.007Z,4504
2016-04-21T07:11:15.025Z,4196
2016-04-21T07:12:15.043Z,4120
2016-04-21T07:13:15.062Z,5040
2016-04-21T07:14:15.096Z,5660
2016-04-21T07:15:15.114Z,5924
2016-04-21T07:16:15.148Z,5872
2016-04-21T07:17:15.134Z,6492
2016-04-21T07:18:15.169Z,7868
2016-04-21T07:19:15.203Z,7988
2016-04-21T07:20:15.205Z,6960
2016-04-21T07:21:15.224Z,6848
2016-04-21T07:22:15.258Z,11296
2016-04-21T07:23:15.291Z,10496
2016-04-21T07:24:15.311Z,3380
2016-04-21T07:25:15.314Z,3080
2016-04-21T07:26:15.362Z,9976
2016-04-21T07:27:15.381Z,13884
2016-04-21T07:28:15.400Z,9196
2016-04-21T07:29:15.417Z,5896
2016-04-21T07:30:15.452Z,6500
2016-04-21T07:31:15.454Z,7712
2016-04-21T07:32:15.488Z,3984
2016-04-21T07:33:15.506Z,2744
2016-04-21T07:34:15.540Z,2424
2016-04-21T07:35:15.558Z,2368
2016-04-21T07:36:15.560Z,2364
2016-04-21T07:37:15.595Z,2372
2016-04-21T07:38:15.614Z,2376
2016-04-21T07:39:15.632Z,2384
2016-04-21T07:40:15.665Z,2372
2016-04-21T07:41:15.669Z,2364
2016-04-21T07:42:15.718Z,2356
2016-04-21T07:43:15.737Z,2392
2016-04-21T07:44:15.755Z,2416
2016-04-21T07:45:15.804Z,2328
2016-04-21T07:46:15.807Z,2668
2016-04-21T07:47:15.809Z,2528
2016-04-21T07:48:15.828Z,2448
2016-04-21T07:49:15.846Z,2400
2016-04-21T07:50:15.895Z,2400
2016-04-21T07:51:15.898Z,2652
2016-04-21T07:52:15.901Z,3232
2016-04-21T07:53:15.935Z,3488
2016-04-21T07:54:15.953Z,2448
2016-04-21T07:55:15.987Z,2412
2016-04-21T07:56:16.006Z,2912
2016-04-21T07:57:16.024Z,2540
2016-04-21T07:58:16.042Z,2988
2016-04-21T07:59:16.092Z,2720
2016-04-21T08:00:16.094Z,3404
2016-04-21T08:01:16.113Z,2604
2016-04-21T08:02:16.162Z,2612
2016-04-21T08:03:16.150Z,2596
2016-04-21T08:04:16.168Z,2540
2016-04-21T08:06:16.205Z,2488
2016-04-21T08:07:16.238Z,2508
2016-04-21T08:08:16.257Z,2524
2016-04-21T08:09:16.322Z,2476
2016-04-21T08:10:16.309Z,2472
2016-04-21T08:11:16.312Z,2668
2016-04-21T08:12:16.345Z,2532
2016-04-21T08:13:16.379Z,2508
2016-04-21T08:14:16.382Z,3232
2016-04-21T08:15:16.416Z,3656
2016-04-21T08:16:16.435Z,3196
2016-04-21T08:17:16.437Z,2632
2016-04-21T08:18:16.487Z,2588
2016-04-21T08:19:16.489Z,2568
2016-04-21T08:20:16.508Z,2568
2016-04-21T08:21:16.557Z,3948
2016-04-21T08:22:16.560Z,12292
2016-04-21T08:23:16.594Z,10544
2016-04-21T08:24:16.486Z,4588
2016-04-21T08:25:16.662Z,4244
2016-04-21T08:26:16.648Z,4512
2016-04-21T08:27:16.667Z,5232
2016-04-21T08:28:16.732Z,4004
2016-04-21T08:29:16.720Z,2952
2016-04-21T08:30:16.769Z,2744
2016-04-21T08:31:16.771Z,2788
2016-04-21T08:32:16.806Z,2772
2016-04-21T08:33:16.683Z,2684
2016-04-21T08:34:16.842Z,2648
2016-04-21T08:35:16.861Z,2668
2016-04-21T08:36:16.894Z,2808
2016-04-21T08:37:16.928Z,2720
2016-04-21T08:38:16.930Z,2684
2016-04-21T08:39:16.980Z,2544
2016-04-21T08:40:16.999Z,2604
2016-04-21T08:41:17.001Z,2612
2016-04-21T08:42:17.021Z,3092
2016-04-21T08:43:17.069Z,2812
2016-04-21T08:44:17.072Z,3084
2016-04-21T08:45:17.107Z,3404
2016-04-21T08:46:17.109Z,4400
2016-04-21T08:47:17.158Z,5196
2016-04-21T08:48:17.193Z,4168
2016-04-21T08:49:17.196Z,3764
2016-04-21T08:50:17.229Z,2952
2016-04-21T08:51:17.247Z,3304
2016-04-21T08:52:17.286Z,2452
2016-04-21T08:53:17.304Z,2412
2016-04-21T08:54:17.339Z,2516
2016-04-21T08:55:17.341Z,3480
2016-04-21T08:56:17.359Z,3420
2016-04-21T08:57:17.377Z,2412
2016-04-21T08:58:17.411Z,2396
2016-04-21T08:59:17.430Z,2400
2016-04-21T09:00:17.447Z,2504
2016-04-21T09:01:17.482Z,4900
2016-04-21T09:02:17.533Z,2832
2016-04-21T09:03:17.535Z,2488
2016-04-21T09:04:17.552Z,2392
2016-04-21T09:05:17.571Z,2368
2016-04-21T09:06:17.605Z,2364
2016-04-21T09:07:17.624Z,2352
2016-04-21T09:08:17.641Z,2336
2016-04-21T09:09:17.707Z,2320
2016-04-21T09:10:17.694Z,2320
2016-04-21T09:11:17.759Z,2320
2016-04-21T09:12:17.746Z,2336
2016-04-21T09:13:17.779Z,2336
2016-04-21T09:14:17.799Z,2336
2016-04-21T09:15:17.833Z,2328
2016-04-21T09:16:17.851Z,2316
2016-04-21T09:17:17.884Z,2320
2016-04-21T09:18:17.918Z,2308
2016-04-21T09:19:17.920Z,2312
2016-04-21T09:20:17.956Z,2308
2016-04-21T09:21:17.958Z,2300
2016-04-21T09:22:17.992Z,2312
2016-04-21T09:23:18.025Z,2312
2016-04-21T09:24:18.091Z,2320
2016-04-21T09:25:18.078Z,2316
2016-04-21T09:26:18.112Z,2316
2016-04-21T09:27:18.115Z,2316
2016-04-21T09:28:18.134Z,2304
2016-04-21T09:29:18.167Z,2308
2016-04-21T09:30:18.186Z,2316
2016-04-21T09:31:18.219Z,2328
2016-04-21T09:32:18.238Z,2336
2016-04-21T09:33:18.271Z,2336
2016-04-21T09:34:18.289Z,2356
2016-04-21T09:35:18.386Z,2396
2016-04-21T09:36:18.327Z,2456
2016-04-21T09:37:18.376Z,2392
2016-04-21T09:38:18.379Z,2400
2016-04-21T09:39:18.427Z,2432
2016-04-21T09:40:18.431Z,2548
2016-04-21T09:41:18.480Z,2764
2016-04-21T09:42:18.499Z,2844
2016-04-21T09:43:18.579Z,2808
2016-04-21T09:44:18.551Z,2744
2016-04-21T09:45:18.569Z,2732
2016-04-21T09:46:18.603Z,2660
2016-04-21T09:47:18.621Z,2644
2016-04-21T09:48:18.656Z,2632
2016-04-21T09:49:18.658Z,2660
2016-04-21T09:50:18.708Z,2724
2016-04-21T09:51:18.726Z,2796
2016-04-21T09:52:18.744Z,2536
2016-04-21T09:53:18.795Z,2500
2016-04-21T09:54:18.797Z,2396
2016-04-21T09:55:18.815Z,2384
2016-04-21T09:56:18.849Z,2356
2016-04-21T09:57:18.883Z,2300
2016-04-21T09:58:19.026Z,2296
2016-04-21T09:59:18.935Z,2280
2016-04-21T10:00:18.954Z,2320
2016-04-21T10:01:18.972Z,2456
2016-04-21T10:02:19.022Z,2388
2016-04-21T10:03:19.040Z,2340
2016-04-21T10:04:19.058Z,2328
2016-04-21T10:05:19.185Z,2312
2016-04-21T10:06:19.141Z,2324
2016-04-21T10:07:19.144Z,2384
2016-04-21T10:08:19.178Z,2960
2016-04-21T10:09:19.243Z,2848
2016-04-21T10:10:19.230Z,2616
2016-04-21T10:11:19.281Z,2488
2016-04-21T10:12:19.359Z,2472
2016-04-21T10:13:27.952Z,2540
2016-04-21T10:14:19.530Z,2712
2016-04-21T10:15:19.562Z,2864
2016-04-21T10:16:19.603Z,3004
2016-04-21T10:17:19.669Z,3344
2016-04-21T10:18:19.703Z,3520
2016-04-21T10:19:19.737Z,3048
2016-04-21T10:20:19.788Z,2852
2016-04-21T10:21:19.813Z,2752
2016-04-21T10:22:19.884Z,2656
2016-04-21T10:23:19.925Z,2784
2016-04-21T10:24:19.917Z,2736
2016-04-21T10:25:19.957Z,2596
2016-04-21T10:26:19.978Z,2652
2016-04-21T10:27:20.029Z,2680
2016-04-21T10:28:20.065Z,2580
2016-04-21T10:29:20.086Z,2768
2016-04-21T10:30:20.138Z,2684
2016-04-21T10:31:20.157Z,2804
2016-04-21T10:32:20.160Z,2904
2016-04-21T10:33:20.179Z,2816
2016-04-21T10:34:20.229Z,2752
2016-04-21T10:35:20.249Z,2748
2016-04-21T10:36:20.283Z,2720
2016-04-21T10:37:20.301Z,2592
2016-04-21T10:38:20.352Z,2604
2016-04-21T10:39:20.370Z,2628
2016-04-21T10:40:20.404Z,2500
2016-04-21T10:41:20.423Z,2460
2016-04-21T10:42:20.457Z,2400
2016-04-21T10:43:20.491Z,2328
2016-04-21T10:44:20.509Z,2380
2016-04-21T10:45:20.621Z,2472
2016-04-21T10:46:20.609Z,2456
2016-04-21T10:47:20.611Z,2548
2016-04-21T10:48:20.615Z,2572
2016-04-21T10:49:20.648Z,2588
2016-04-21T10:50:20.682Z,2560
2016-04-21T10:51:20.701Z,2528
2016-04-21T10:52:20.750Z,2580
2016-04-21T10:53:20.768Z,2712
2016-04-21T10:54:20.803Z,2692
2016-04-21T10:55:20.851Z,2628
2016-04-21T10:56:20.870Z,2584
2016-04-21T10:57:20.872Z,2556
2016-04-21T10:58:20.906Z,2524
2016-04-21T10:59:20.941Z,2592
2016-04-21T11:00:20.958Z,2748
2016-04-21T11:01:21.008Z,2768
2016-04-21T11:02:21.011Z,2596
2016-04-21T11:03:21.092Z,2552
2016-04-21T11:04:21.079Z,2632
2016-04-21T11:05:21.097Z,2724
2016-04-21T11:06:21.147Z,2800
2016-04-21T11:07:21.166Z,2736
2016-04-21T11:08:21.199Z,2588
2016-04-21T11:09:21.233Z,2508
2016-04-21T11:10:21.251Z,2412
2016-04-21T11:11:21.316Z,2296
2016-04-21T11:12:21.319Z,2272
2016-04-21T11:13:21.166Z,2520
2016-04-21T11:14:21.371Z,2456
2016-04-21T11:15:21.390Z,2368
2016-04-21T11:16:21.424Z,2412
2016-04-21T11:17:21.458Z,2364
2016-04-21T11:18:21.475Z,2320
2016-04-21T11:19:21.525Z,2204
2016-04-21T11:20:21.543Z,2200
2016-04-21T11:21:21.562Z,2032
2016-04-21T11:22:21.595Z,1888
2016-04-21T11:23:21.646Z,1904
2016-04-21T11:24:21.664Z,1848
2016-04-21T11:25:21.698Z,2080
2016-04-21T11:26:21.716Z,2060
2016-04-21T11:27:21.766Z,2044
2016-04-21T11:28:21.753Z,2120
2016-04-21T11:29:21.803Z,2056
2016-04-21T11:30:21.820Z,2036
2016-04-21T11:31:21.855Z,2156
2016-04-21T11:32:21.872Z,2088
2016-04-21T11:33:21.907Z,2192
2016-04-21T11:34:21.956Z,2120
2016-04-21T11:35:21.975Z,2128
2016-04-21T11:36:21.993Z,2048
2016-04-21T11:37:22.011Z,2032
2016-04-21T11:38:22.060Z,2156
2016-04-21T11:39:22.079Z,1996
2016-04-21T11:40:22.097Z,2148
2016-04-21T11:41:22.116Z,2068
2016-04-21T11:42:22.166Z,1924
2016-04-21T11:43:22.184Z,1844
2016-04-21T11:44:22.218Z,1744
2016-04-21T11:45:22.252Z,1744
2016-04-21T11:46:22.271Z,1904
2016-04-21T11:47:22.288Z,1848
2016-04-21T11:48:22.322Z,1872
2016-04-21T11:49:22.356Z,1896
2016-04-21T11:50:22.390Z,2132
2016-04-21T11:51:22.409Z,2164
2016-04-21T11:52:22.521Z,2188
2016-04-21T11:53:22.461Z,2204
2016-04-21T11:54:22.494Z,2276
2016-04-21T11:55:22.512Z,2172
2016-04-21T11:56:22.562Z,2116
2016-04-21T11:57:22.597Z,2260
2016-04-21T11:58:22.631Z,2276
2016-04-21T11:59:22.633Z,2304
2016-04-21T12:00:22.667Z,2308
2016-04-21T12:01:22.700Z,2228
2016-04-21T12:02:22.735Z,2200
2016-04-21T12:03:22.753Z,2096
2016-04-21T12:04:22.772Z,2100
2016-04-21T12:05:22.806Z,1932
2016-04-21T12:06:22.855Z,2044
2016-04-21T12:07:22.858Z,1944
2016-04-21T12:08:22.891Z,1980
2016-04-21T12:09:22.910Z,1764
2016-04-21T12:10:22.788Z,1832
2016-04-21T12:11:22.962Z,1800
2016-04-21T12:12:23.012Z,1696
2016-04-21T12:13:23.030Z,1708
2016-04-21T12:14:23.079Z,1760
2016-04-21T12:15:23.082Z,1680
2016-04-21T12:16:23.148Z,1844
2016-04-21T12:17:23.151Z,1804
2016-04-21T12:18:23.168Z,1780
2016-04-21T12:19:23.218Z,1832
2016-04-21T12:20:23.220Z,1964
2016-04-21T12:21:23.254Z,1996
2016-04-21T12:22:23.335Z,2004
2016-04-21T12:23:23.306Z,1920
2016-04-21T12:24:23.357Z,1772
2016-04-21T12:25:23.359Z,1876
2016-04-21T12:26:23.409Z,1732
2016-04-21T12:27:23.427Z,1760
2016-04-21T12:28:23.446Z,1884
2016-04-21T12:29:23.495Z,1860
2016-04-21T12:30:23.528Z,1840
2016-04-21T12:31:23.531Z,1804
2016-04-21T12:32:23.566Z,1856
2016-04-21T12:33:23.584Z,1844
2016-04-21T12:34:23.633Z,1992
2016-04-21T12:35:23.667Z,1876
2016-04-21T12:36:23.669Z,1800
2016-04-21T12:37:23.704Z,1932
2016-04-21T12:38:23.738Z,2008
2016-04-21T12:39:23.803Z,1984
2016-04-21T12:40:23.805Z,1972
2016-04-21T12:41:23.808Z,2020
2016-04-21T12:42:23.858Z,2008
2016-04-21T12:43:23.877Z,2032
2016-04-21T12:44:23.910Z,2028
2016-04-21T12:45:23.929Z,1940
2016-04-21T12:46:23.978Z,1936
2016-04-21T12:47:24.012Z,2008
2016-04-21T12:48:24.015Z,1876
2016-04-21T12:49:24.048Z,1664
2016-04-21T12:50:24.068Z,1660
2016-04-21T12:51:24.101Z,1492
2016-04-21T12:52:24.135Z,1416
2016-04-21T12:53:24.154Z,1376
2016-04-21T12:54:24.187Z,1716
2016-04-21T12:55:24.206Z,1964
2016-04-21T12:56:24.239Z,1872
2016-04-21T12:57:24.273Z,1828
2016-04-21T12:58:24.307Z,1784
2016-04-21T12:59:24.326Z,1800
2016-04-21T13:00:24.345Z,1752
2016-04-21T13:01:24.394Z,1912
2016-04-21T13:02:24.412Z,1892
2016-04-21T13:03:24.462Z,1776
2016-04-21T13:04:24.480Z,1728
2016-04-21T13:05:24.513Z,1836
2016-04-21T13:06:24.532Z,1864
2016-04-21T13:07:24.550Z,1820
2016-04-21T13:08:24.569Z,1836
2016-04-21T13:09:24.602Z,1896
2016-04-21T13:10:24.636Z,1992
2016-04-21T13:11:24.686Z,1976
2016-04-21T13:12:24.705Z,2020
2016-04-21T13:13:24.722Z,1936
2016-04-21T13:14:24.740Z,1928
2016-04-21T13:15:24.807Z,1900
2016-04-21T13:16:24.809Z,1812
2016-04-21T13:17:24.843Z,1876
2016-04-21T13:18:24.861Z,1868
2016-04-21T13:19:24.738Z,1900
2016-04-21T13:20:24.913Z,2080
2016-04-21T13:21:24.948Z,2140
2016-04-21T13:22:24.810Z,1428
2016-04-21T13:23:25.016Z,2192
2016-04-21T13:24:25.034Z,2140
2016-04-21T13:25:25.067Z,2208
2016-04-21T13:26:25.086Z,2220
2016-04-21T13:27:25.134Z,2216
2016-04-21T13:28:25.138Z,2212
2016-04-21T13:30:25.206Z,2176
2016-04-21T13:31:25.225Z,2152
2016-04-21T13:32:25.259Z,2116
2016-04-21T13:33:25.292Z,2144
2016-04-21T13:34:25.326Z,2128
2016-04-21T13:35:25.345Z,2172
2016-04-21T13:36:25.394Z,2152
2016-04-21T13:37:25.412Z,2108
2016-04-21T13:38:25.274Z,2160
2016-04-21T13:39:25.464Z,2176
2016-04-21T13:40:25.749Z,2168
2016-04-21T13:41:25.533Z,2176
2016-04-21T13:42:25.551Z,2176
2016-04-21T13:43:25.553Z,2140
2016-04-21T13:44:25.618Z,2132
2016-04-21T13:46:25.657Z,2016
2016-04-21T13:47:25.676Z,1892
2016-04-21T13:48:25.726Z,1868
2016-04-21T13:49:25.588Z,2072